createdAt,value
2023-03-06T00:00:30.901Z,8.43
2023-03-06T00:02:58.876Z,9.53
2023-03-06T00:05:27.106Z,8.87
2023-03-06T00:07:54.933Z,9.10
2023-03-06T00:10:24.764Z,10.43
2023-03-06T00:12:53.827Z,9.50
2023-03-06T00:15:21.798Z,8.73
2023-03-06T00:17:49.548Z,8.03
2023-03-06T00:20:17.684Z,9.07
2023-03-06T00:22:45.579Z,8.50
2023-03-06T00:25:21.543Z,10.60
2023-03-06T00:27:49.639Z,9.33
2023-03-06T00:30:19.491Z,10.43
2023-03-06T00:32:47.248Z,8.13
2023-03-06T00:35:15.321Z,8.93
2023-03-06T00:37:43.210Z,9.37
2023-03-06T00:40:13.164Z,7.93
2023-03-06T00:42:41.029Z,20.87
2023-03-06T00:45:09.328Z,11.07
2023-03-06T00:47:37.215Z,9.93
2023-03-06T00:50:05.860Z,10.37
2023-03-06T00:52:33.751Z,8.20
2023-03-06T00:55:01.474Z,8.57
2023-03-06T00:57:29.254Z,9.63
2023-03-06T00:59:56.975Z,10.50
2023-03-06T01:02:24.844Z,9.00
2023-03-06T01:04:52.599Z,8.47
2023-03-06T01:07:20.345Z,11.40
2023-03-06T01:09:48.092Z,10.17
2023-03-06T01:12:15.886Z,9.20
2023-03-06T01:14:43.634Z,20.27
2023-03-06T01:17:11.583Z,10.83
2023-03-06T01:19:39.442Z,25.93
2023-03-06T01:22:07.179Z,20.97
2023-03-06T01:24:34.983Z,35.33
2023-03-06T01:27:02.761Z,21.33
2023-03-06T01:29:30.495Z,20.00
2023-03-06T01:31:58.263Z,17.87
2023-03-06T01:34:26.033Z,21.60
2023-03-06T01:36:53.758Z,18.43
2023-03-06T01:39:21.595Z,18.50
2023-03-06T01:41:49.368Z,14.50
2023-03-06T01:44:17.180Z,16.40
2023-03-06T01:46:45.817Z,12.88
2023-03-06T01:49:19.758Z,20.23
2023-03-06T01:51:52.416Z,19.67
2023-03-06T01:54:43.867Z,12.27
2023-03-06T01:57:19.066Z,22.43
2023-03-06T01:59:46.838Z,12.40
2023-03-06T02:02:14.664Z,12.10
2023-03-06T02:04:43.483Z,10.87
2023-03-06T02:07:11.312Z,10.60
2023-03-06T02:09:39.172Z,8.73
2023-03-06T02:12:14.885Z,7.53
2023-03-06T02:14:42.747Z,9.73
2023-03-06T02:17:11.384Z,9.37
2023-03-06T02:19:57.348Z,9.27
2023-03-06T02:22:25.205Z,11.37
2023-03-06T02:25:05.337Z,8.50
2023-03-06T02:27:33.105Z,10.13
2023-03-06T02:30:00.860Z,7.60
2023-03-06T02:32:28.670Z,10.00
2023-03-06T02:34:57.874Z,7.37
2023-03-06T02:37:26.466Z,8.93
2023-03-06T02:39:58.954Z,9.67
2023-03-06T02:42:27.280Z,10.90
2023-03-06T02:44:55.075Z,8.33
2023-03-06T02:47:22.821Z,7.77
2023-03-06T02:49:50.586Z,9.40
2023-03-06T02:52:18.551Z,7.90
2023-03-06T02:54:46.350Z,7.77
2023-03-06T02:57:14.088Z,9.20
2023-03-06T02:59:41.852Z,10.40
2023-03-06T03:02:09.682Z,9.80
2023-03-06T03:04:37.429Z,11.20
2023-03-06T03:07:05.347Z,9.20
2023-03-06T03:09:37.929Z,8.60
2023-03-06T03:12:07.216Z,8.70
2023-03-06T03:14:34.961Z,9.20
2023-03-06T03:17:02.750Z,10.90
2023-03-06T03:19:30.561Z,10.40
2023-03-06T03:21:58.385Z,10.60
2023-03-06T03:24:26.168Z,13.83
2023-03-06T03:26:54.090Z,14.00
2023-03-06T03:29:21.913Z,10.57
2023-03-06T03:31:49.717Z,9.97
2023-03-06T03:34:17.616Z,11.20
2023-03-06T03:36:45.649Z,11.27
2023-03-06T03:39:13.615Z,8.77
2023-03-06T03:41:41.357Z,9.63
2023-03-06T03:44:09.167Z,11.77
2023-03-06T03:46:36.925Z,8.97
2023-03-06T03:49:04.825Z,11.87
2023-03-06T03:51:32.751Z,9.40
2023-03-06T03:54:00.451Z,10.33
2023-03-06T03:56:28.269Z,10.90
2023-03-06T03:58:56.523Z,10.43
2023-03-06T04:01:24.323Z,8.93
2023-03-06T04:03:52.177Z,9.23
2023-03-06T04:06:20.073Z,8.03
2023-03-06T04:08:47.786Z,12.37
2023-03-06T04:11:15.552Z,8.77
2023-03-06T04:13:43.293Z,8.43
2023-03-06T04:16:11.059Z,9.93
2023-03-06T04:18:38.824Z,9.40
2023-03-06T04:21:06.746Z,9.13
2023-03-06T04:23:34.566Z,11.80
2023-03-06T04:26:02.365Z,8.93
2023-03-06T04:28:30.251Z,7.47
2023-03-06T04:30:57.975Z,9.00
2023-03-06T04:33:25.735Z,11.80
2023-03-06T04:35:53.578Z,8.40
2023-03-06T04:38:21.439Z,10.50
2023-03-06T04:40:50.802Z,8.37
2023-03-06T04:43:18.707Z,10.23
2023-03-06T04:45:46.583Z,11.77
2023-03-06T04:48:15.857Z,10.13
2023-03-06T04:50:43.668Z,10.77
2023-03-06T04:53:12.149Z,10.50
2023-03-06T04:55:39.935Z,12.63
2023-03-06T04:58:07.684Z,14.90
2023-03-06T05:00:35.923Z,12.63
2023-03-06T05:03:03.736Z,10.37
2023-03-06T05:05:31.513Z,13.53
2023-03-06T05:07:59.251Z,11.47
2023-03-06T05:10:26.987Z,9.40
2023-03-06T05:12:54.808Z,11.73
2023-03-06T05:15:22.588Z,13.60
2023-03-06T05:17:50.355Z,10.00
2023-03-06T05:20:18.311Z,10.73
2023-03-06T05:22:46.172Z,9.13
2023-03-06T05:25:14.151Z,11.37
2023-03-06T05:27:42.055Z,11.97
2023-03-06T05:30:12.443Z,12.40
2023-03-06T05:32:40.269Z,13.60
2023-03-06T05:35:08.480Z,11.83
2023-03-06T05:37:36.293Z,13.20
2023-03-06T05:40:07.225Z,11.97
2023-03-06T05:42:34.976Z,10.90
2023-03-06T05:45:03.821Z,10.67
2023-03-06T05:47:32.277Z,12.27
2023-03-06T05:50:00.189Z,12.00
2023-03-06T05:52:27.997Z,13.47
2023-03-06T05:54:55.888Z,14.10
2023-03-06T05:57:24.476Z,13.13
2023-03-06T05:59:52.260Z,14.13
2023-03-06T06:02:20.194Z,12.70
2023-03-06T06:04:48.044Z,12.20
2023-03-06T06:07:16.402Z,11.77
2023-03-06T06:09:46.700Z,13.53
2023-03-06T06:12:15.202Z,14.03
2023-03-06T06:14:43.073Z,13.07
2023-03-06T06:17:11.089Z,14.30
2023-03-06T06:19:39.480Z,10.83
2023-03-06T06:22:07.370Z,13.40
2023-03-06T06:24:35.458Z,11.90
2023-03-06T06:27:04.039Z,14.23
2023-03-06T06:29:32.126Z,11.20
2023-03-06T06:32:00.341Z,11.73
2023-03-06T06:34:28.662Z,14.20
2023-03-06T06:36:56.687Z,15.03
2023-03-06T06:39:24.609Z,13.33
2023-03-06T06:42:09.722Z,17.40
2023-03-06T06:44:41.596Z,15.83
2023-03-06T06:47:25.874Z,12.87
2023-03-06T06:49:54.861Z,13.60
2023-03-06T06:52:23.254Z,11.87
2023-03-06T06:54:51.123Z,11.33
2023-03-06T06:57:18.946Z,13.20
2023-03-06T06:59:46.723Z,15.30
2023-03-06T07:02:15.644Z,13.83
2023-03-06T07:05:00.240Z,11.80
2023-03-06T07:07:30.197Z,15.73
2023-03-06T07:09:58.044Z,14.60
2023-03-06T07:12:25.809Z,13.60
2023-03-06T07:14:53.577Z,14.03
2023-03-06T07:17:21.388Z,11.47
2023-03-06T07:19:49.673Z,12.20
2023-03-06T07:22:17.406Z,12.90
2023-03-06T07:24:45.237Z,13.33
2023-03-06T07:27:13.001Z,13.13
2023-03-06T07:29:40.730Z,14.00
2023-03-06T07:32:08.562Z,12.03
2023-03-06T07:34:36.448Z,12.60
2023-03-06T07:37:04.452Z,10.73
2023-03-06T07:39:32.482Z,12.30
2023-03-06T07:42:00.455Z,12.90
2023-03-06T07:44:28.623Z,16.10
2023-03-06T07:46:56.709Z,13.13
2023-03-06T07:49:24.725Z,13.00
2023-03-06T07:51:52.629Z,11.83
2023-03-06T07:54:20.556Z,13.63
2023-03-06T07:56:51.795Z,11.93
2023-03-06T07:59:19.791Z,12.63
2023-03-06T08:01:47.791Z,14.33
2023-03-06T08:04:15.760Z,13.13
2023-03-06T08:06:43.742Z,13.20
2023-03-06T08:09:12.083Z,13.90
2023-03-06T08:11:40.091Z,12.67
2023-03-06T08:14:07.923Z,12.97
2023-03-06T08:16:35.928Z,13.47
2023-03-06T08:19:03.961Z,13.20
2023-03-06T08:21:31.774Z,15.03
2023-03-06T08:23:59.739Z,13.23
2023-03-06T08:26:29.583Z,13.10
2023-03-06T08:28:58.601Z,14.83
2023-03-06T08:31:26.545Z,14.03
2023-03-06T08:33:55.528Z,15.63
2023-03-06T08:36:23.637Z,14.27
2023-03-06T08:38:51.846Z,17.77
2023-03-06T08:41:20.475Z,20.40
2023-03-06T08:43:48.773Z,15.87
2023-03-06T08:46:17.071Z,14.37
2023-03-06T08:48:44.984Z,14.43
2023-03-06T08:51:12.919Z,16.83
2023-03-06T08:53:43.666Z,14.33
2023-03-06T08:56:19.722Z,16.57
2023-03-06T08:58:47.934Z,15.07
2023-03-06T09:01:26.715Z,16.43
2023-03-06T09:03:55.687Z,16.10
2023-03-06T09:06:24.523Z,14.07
2023-03-06T09:08:53.712Z,12.97
2023-03-06T09:11:22.962Z,14.57
2023-03-06T09:13:50.980Z,16.40
2023-03-06T09:16:29.681Z,15.40
2023-03-06T09:19:04.506Z,14.77
2023-03-06T09:21:38.539Z,14.47
2023-03-06T09:24:08.924Z,16.00
2023-03-06T09:26:47.159Z,15.27
2023-03-06T09:29:17.679Z,15.57
2023-03-06T09:31:47.512Z,19.17
2023-03-06T09:34:30.474Z,15.43
2023-03-06T09:37:03.442Z,15.73
2023-03-06T09:39:31.769Z,15.23
2023-03-06T09:42:04.380Z,15.33
2023-03-06T09:44:33.892Z,15.30
2023-03-06T09:47:09.818Z,13.20
2023-03-06T09:50:02.799Z,18.10
2023-03-06T09:52:51.406Z,13.43
2023-03-06T09:55:20.885Z,15.13
2023-03-06T09:58:04.981Z,15.47
2023-03-06T10:00:49.079Z,14.63
2023-03-06T10:03:31.254Z,14.00
2023-03-06T10:06:14.791Z,11.57
2023-03-06T10:09:14.959Z,14.93
2023-03-06T10:11:54.328Z,13.67
2023-03-06T10:14:28.854Z,11.30
2023-03-06T10:16:57.720Z,13.53
2023-03-06T10:19:27.141Z,14.30
2023-03-06T10:22:05.857Z,12.77
2023-03-06T10:24:58.515Z,12.23
2023-03-06T10:27:44.493Z,13.40
2023-03-06T10:30:43.893Z,12.47
2023-03-06T10:33:20.829Z,13.03
2023-03-06T10:35:56.370Z,19.07
2023-03-06T10:38:27.739Z,12.00
2023-03-06T10:41:13.617Z,11.30
2023-03-06T10:44:07.917Z,10.03
2023-03-06T10:46:37.736Z,11.60
2023-03-06T10:49:10.449Z,8.30
2023-03-06T10:51:38.672Z,9.17
2023-03-06T10:54:15.746Z,9.53
2023-03-06T10:56:44.642Z,9.70
2023-03-06T10:59:15.818Z,9.30
2023-03-06T11:02:23.325Z,9.57
2023-03-06T11:04:53.710Z,8.27
2023-03-06T11:07:29.182Z,8.23
2023-03-06T11:10:00.300Z,8.13
2023-03-06T11:12:36.300Z,6.87
2023-03-06T11:15:30.098Z,7.50
2023-03-06T11:18:15.165Z,7.20
2023-03-06T11:20:55.772Z,8.43
2023-03-06T11:23:48.813Z,6.17
2023-03-06T11:26:22.308Z,7.07
2023-03-06T11:29:03.444Z,7.40
2023-03-06T11:31:57.406Z,7.97
2023-03-06T11:34:35.374Z,8.47
2023-03-06T11:37:09.991Z,9.93
2023-03-06T11:39:56.378Z,8.10
2023-03-06T11:42:33.044Z,7.87
2023-03-06T11:45:02.926Z,9.47
2023-03-06T11:47:34.344Z,7.77
2023-03-06T11:50:13.877Z,7.97
2023-03-06T11:52:50.671Z,8.60
2023-03-06T11:55:37.777Z,7.73
2023-03-06T11:58:33.615Z,9.37
2023-03-06T12:01:14.941Z,10.20
2023-03-06T12:04:04.459Z,8.93
2023-03-06T12:06:57.076Z,8.93
2023-03-06T12:09:40.222Z,7.07
2023-03-06T12:12:29.270Z,7.93
2023-03-06T12:15:18.379Z,7.17
2023-03-06T12:18:04.474Z,6.70
2023-03-06T12:21:07.616Z,7.67
2023-03-06T12:23:53.721Z,9.30
2023-03-06T12:26:37.698Z,6.40
2023-03-06T12:29:20.389Z,8.43
2023-03-06T12:32:07.535Z,8.90
2023-03-06T12:34:35.850Z,6.50
2023-03-06T12:37:38.963Z,9.03
2023-03-06T12:40:30.286Z,6.60
2023-03-06T12:43:03.927Z,8.07
2023-03-06T12:45:35.623Z,5.50
2023-03-06T12:48:03.969Z,6.53
2023-03-06T12:50:32.995Z,7.43
2023-03-06T12:53:34.059Z,10.30
2023-03-06T12:56:02.914Z,8.40
2023-03-06T12:58:31.155Z,8.53
2023-03-06T13:01:08.748Z,8.77
2023-03-06T13:03:40.602Z,8.90
2023-03-06T13:06:15.704Z,11.23
2023-03-06T13:09:02.336Z,7.07
2023-03-06T13:11:48.869Z,9.60
2023-03-06T13:14:48.718Z,8.30
2023-03-06T13:17:21.867Z,8.67
2023-03-06T13:19:50.328Z,9.47
2023-03-06T13:22:28.883Z,7.57
2023-03-06T13:25:18.331Z,8.27
2023-03-06T13:28:05.272Z,8.27
2023-03-06T13:30:36.698Z,9.67
2023-03-06T13:33:40.076Z,6.43
2023-03-06T13:36:43.790Z,6.10
2023-03-06T13:39:15.749Z,7.70
2023-03-06T13:41:59.803Z,5.43
2023-03-06T13:44:28.007Z,8.07
2023-03-06T13:47:01.218Z,6.63
2023-03-06T13:49:29.466Z,5.43
2023-03-06T13:52:10.596Z,7.50
2023-03-06T13:55:07.058Z,7.87
2023-03-06T13:57:44.259Z,7.30
2023-03-06T14:00:48.056Z,7.60
2023-03-06T14:03:52.960Z,8.00
2023-03-06T14:06:35.909Z,6.47
2023-03-06T14:09:06.115Z,6.63
2023-03-06T14:11:34.149Z,11.57
2023-03-06T14:14:02.175Z,7.13
2023-03-06T14:16:40.619Z,6.70
2023-03-06T14:19:18.318Z,7.37
2023-03-06T14:21:46.364Z,6.33
2023-03-06T14:24:19.035Z,10.73
2023-03-06T14:26:53.430Z,8.30
2023-03-06T14:29:26.120Z,5.70
2023-03-06T14:31:55.518Z,6.40
2023-03-06T14:34:29.358Z,9.03
2023-03-06T14:36:59.970Z,5.83
2023-03-06T14:39:35.489Z,6.80
2023-03-06T14:42:08.599Z,5.47
2023-03-06T14:44:37.080Z,7.63
2023-03-06T14:47:30.850Z,6.53
2023-03-06T14:50:27.608Z,6.40
2023-03-06T14:52:59.859Z,5.87
2023-03-06T14:55:29.085Z,6.97
2023-03-06T14:58:04.234Z,8.50
2023-03-06T15:00:36.905Z,7.10
2023-03-06T15:03:09.937Z,7.53
2023-03-06T15:05:38.827Z,5.33
2023-03-06T15:08:08.719Z,22.80
2023-03-06T15:10:37.058Z,9.00
2023-03-06T15:13:21.543Z,6.87
2023-03-06T15:16:05.558Z,7.77
2023-03-06T15:18:40.302Z,7.43
2023-03-06T15:21:21.285Z,6.90
2023-03-06T15:23:50.322Z,6.23
2023-03-06T15:26:39.627Z,7.07
2023-03-06T15:29:10.617Z,6.93
2023-03-06T15:31:43.275Z,6.87
2023-03-06T15:34:10.979Z,9.00
2023-03-06T15:36:45.600Z,6.33
2023-03-06T15:39:32.718Z,6.27
2023-03-06T15:42:09.081Z,7.30
2023-03-06T15:44:37.174Z,7.13
2023-03-06T15:47:09.167Z,7.10
2023-03-06T15:49:38.944Z,8.07
2023-03-06T15:52:10.084Z,6.13
2023-03-06T15:54:38.030Z,5.93
2023-03-06T15:57:06.910Z,9.07
2023-03-06T15:59:38.749Z,7.77
2023-03-06T16:02:17.205Z,6.53
2023-03-06T16:04:45.401Z,7.53
2023-03-06T16:07:13.870Z,6.17
2023-03-06T16:09:43.019Z,8.03
2023-03-06T16:12:26.873Z,6.53
2023-03-06T16:14:54.979Z,6.13
2023-03-06T16:17:22.974Z,7.13
2023-03-06T16:19:52.093Z,8.07
2023-03-06T16:22:20.158Z,5.33
2023-03-06T16:24:48.586Z,5.83
2023-03-06T16:27:18.383Z,7.37
2023-03-06T16:29:46.425Z,7.23
2023-03-06T16:32:14.465Z,6.97
2023-03-06T16:34:42.545Z,6.97
2023-03-06T16:37:12.801Z,6.30
2023-03-06T16:39:40.726Z,6.60
2023-03-06T16:42:08.700Z,7.70
2023-03-06T16:44:36.770Z,8.60
2023-03-06T16:47:04.860Z,8.33
2023-03-06T16:49:32.765Z,8.83
2023-03-06T16:52:00.888Z,7.87
2023-03-06T16:54:29.289Z,5.57
2023-03-06T16:56:57.601Z,7.13
2023-03-06T16:59:28.698Z,6.27
2023-03-06T17:02:02.929Z,8.23
2023-03-06T17:04:34.430Z,5.73
2023-03-06T17:07:07.610Z,6.67
2023-03-06T17:09:36.176Z,6.90
2023-03-06T17:12:04.220Z,6.57
2023-03-06T17:14:35.120Z,7.07
2023-03-06T17:17:04.096Z,7.23
2023-03-06T17:19:32.407Z,10.67
2023-03-06T17:22:00.481Z,9.23
2023-03-06T17:24:28.993Z,6.43
2023-03-06T17:26:57.201Z,6.33
2023-03-06T17:29:25.563Z,8.30
2023-03-06T17:31:53.702Z,7.63
2023-03-06T17:34:24.285Z,8.27
2023-03-06T17:36:52.721Z,6.80
2023-03-06T17:39:21.033Z,7.00
2023-03-06T17:41:49.201Z,8.17
2023-03-06T17:44:21.217Z,8.80
2023-03-06T17:46:49.491Z,8.03
2023-03-06T17:49:20.475Z,7.23
2023-03-06T17:51:48.663Z,6.57
2023-03-06T17:54:17.265Z,6.20
2023-03-06T17:56:45.331Z,6.00
2023-03-06T17:59:13.664Z,7.43
2023-03-06T18:01:42.155Z,7.47
2023-03-06T18:04:11.091Z,6.67
2023-03-06T18:06:39.347Z,6.73
2023-03-06T18:09:07.620Z,7.03
2023-03-06T18:11:35.730Z,6.87
2023-03-06T18:14:05.564Z,7.33
2023-03-06T18:16:33.711Z,7.73
2023-03-06T18:19:01.974Z,8.33
2023-03-06T18:21:30.088Z,7.73
2023-03-06T18:23:59.275Z,9.77
2023-03-06T18:26:28.974Z,12.20
2023-03-06T18:28:59.020Z,10.73
2023-03-06T18:31:29.840Z,11.40
2023-03-06T18:34:00.189Z,8.10
2023-03-06T18:36:30.331Z,7.80
2023-03-06T18:38:58.378Z,7.53
2023-03-06T18:41:26.549Z,9.33
2023-03-06T18:43:58.568Z,7.60
2023-03-06T18:46:27.304Z,7.50
2023-03-06T18:48:56.487Z,8.73
2023-03-06T18:51:24.749Z,8.17
2023-03-06T18:53:53.460Z,6.83
2023-03-06T18:56:22.505Z,7.47
2023-03-06T18:58:51.670Z,7.27
2023-03-06T19:01:20.040Z,8.03
2023-03-06T19:03:48.239Z,9.03
2023-03-06T19:06:18.213Z,7.83
2023-03-06T19:08:46.546Z,6.03
2023-03-06T19:11:16.162Z,8.63
2023-03-06T19:13:44.712Z,6.40
2023-03-06T19:16:20.733Z,7.67
2023-03-06T19:18:48.843Z,6.50
2023-03-06T19:21:20.856Z,6.83
2023-03-06T19:23:48.979Z,7.80
2023-03-06T19:26:17.564Z,7.47
2023-03-06T19:28:46.104Z,7.17
2023-03-06T19:31:31.152Z,7.43
2023-03-06T19:33:59.581Z,8.60
2023-03-06T19:36:32.377Z,7.30
2023-03-06T19:39:03.492Z,7.00
2023-03-06T19:41:31.727Z,7.10
2023-03-06T19:44:01.460Z,7.73
2023-03-06T19:46:29.557Z,6.87
2023-03-06T19:49:02.394Z,7.60
2023-03-06T19:51:30.449Z,8.13
2023-03-06T19:53:58.942Z,7.40
2023-03-06T19:56:29.042Z,7.33
2023-03-06T19:58:57.976Z,8.87
2023-03-06T20:01:27.462Z,11.17
2023-03-06T20:04:00.777Z,12.80
2023-03-06T20:06:35.178Z,14.47
2023-03-06T20:09:05.274Z,10.17
2023-03-06T20:11:33.774Z,9.33
2023-03-06T20:14:03.095Z,10.73
2023-03-06T20:16:31.842Z,8.13
2023-03-06T20:19:01.533Z,8.40
2023-03-06T20:21:34.824Z,7.97
2023-03-06T20:24:05.407Z,10.13
2023-03-06T20:26:36.186Z,8.63
2023-03-06T20:29:09.446Z,7.87
2023-03-06T20:31:38.089Z,8.53
2023-03-06T20:34:06.552Z,9.83
2023-03-06T20:36:37.463Z,9.87
2023-03-06T20:39:07.749Z,8.83
2023-03-06T20:41:40.547Z,7.63
2023-03-06T20:44:11.070Z,11.63
2023-03-06T20:46:40.861Z,10.83
2023-03-06T20:49:12.929Z,10.23
2023-03-06T20:51:41.385Z,10.07
2023-03-06T20:54:11.533Z,9.33
2023-03-06T20:56:43.025Z,9.20
2023-03-06T20:59:12.975Z,8.60
2023-03-06T21:01:43.539Z,7.13
2023-03-06T21:04:12.862Z,7.13
2023-03-06T21:06:41.504Z,8.17
2023-03-06T21:09:09.675Z,8.73
2023-03-06T21:11:37.892Z,8.60
2023-03-06T21:14:06.226Z,8.20
2023-03-06T21:16:34.686Z,10.23
2023-03-06T21:19:03.371Z,10.00
2023-03-06T21:21:33.928Z,9.77
2023-03-06T21:24:02.150Z,8.00
2023-03-06T21:26:31.377Z,6.90
2023-03-06T21:29:00.220Z,8.20
2023-03-06T21:31:31.303Z,8.23
2023-03-06T21:34:00.304Z,7.97
2023-03-06T21:36:28.429Z,9.13
2023-03-06T21:38:56.772Z,9.07
2023-03-06T21:41:30.646Z,8.07
2023-03-06T21:43:59.954Z,11.17
2023-03-06T21:46:28.169Z,11.50
2023-03-06T21:48:56.770Z,11.47
2023-03-06T21:51:25.336Z,10.77
2023-03-06T21:53:53.715Z,9.20
2023-03-06T21:56:22.924Z,13.87
2023-03-06T21:58:50.750Z,8.70
2023-03-06T22:01:20.702Z,8.77
2023-03-06T22:03:48.620Z,8.97
2023-03-06T22:06:18.304Z,9.27
2023-03-06T22:08:46.250Z,8.33
2023-03-06T22:11:21.997Z,8.13
2023-03-06T22:13:49.915Z,8.70
2023-03-06T22:16:19.725Z,7.80
2023-03-06T22:18:48.571Z,8.77
2023-03-06T22:21:17.342Z,10.53
2023-03-06T22:23:45.142Z,9.57
2023-03-06T22:26:13.916Z,12.17
2023-03-06T22:28:42.263Z,9.13
2023-03-06T22:31:11.999Z,9.63
2023-03-06T22:33:39.938Z,8.30
2023-03-06T22:36:09.666Z,9.93
2023-03-06T22:38:38.980Z,13.37
2023-03-06T22:41:07.163Z,9.80
2023-03-06T22:43:35.144Z,8.27
2023-03-06T22:46:16.800Z,7.57
2023-03-06T22:48:44.744Z,9.97
2023-03-06T22:51:14.462Z,10.23
2023-03-06T22:53:42.602Z,9.83
2023-03-06T22:56:12.193Z,9.83
2023-03-06T22:58:40.124Z,9.47
2023-03-06T23:01:13.040Z,10.37
2023-03-06T23:03:42.233Z,7.83
2023-03-06T23:06:10.858Z,9.27
2023-03-06T23:08:38.863Z,9.27
2023-03-06T23:11:13.308Z,8.23
2023-03-06T23:13:41.184Z,8.83
2023-03-06T23:16:09.510Z,10.53
2023-03-06T23:18:37.917Z,8.80
2023-03-06T23:21:15.878Z,9.27
2023-03-06T23:23:45.335Z,9.17
2023-03-06T23:26:14.588Z,10.30
2023-03-06T23:28:42.616Z,9.47
2023-03-06T23:31:14.894Z,9.70
2023-03-06T23:33:42.854Z,10.00
2023-03-06T23:36:12.420Z,10.33
2023-03-06T23:38:40.193Z,9.10
2023-03-06T23:41:09.394Z,9.30
2023-03-06T23:43:37.571Z,9.23
2023-03-06T23:46:05.552Z,9.30
2023-03-06T23:48:33.400Z,8.37
2023-03-06T23:51:01.713Z,11.57
2023-03-06T23:53:29.499Z,10.70
2023-03-06T23:55:57.615Z,7.80
2023-03-06T23:58:25.350Z,8.60
